Time;durP1;ratioP1;P1;durP2;ratioP2;P2;SDS_P1;SDS_P2;PMS_P1;PMS_P2;Temp;Humidity;BMP_temperature;BMP_pressure;BME280_temperature;BME280_humidity;BME280_pressure;Samples;Min_cycle;Max_cycle;Signal;HPM_P1;HPM_P2
2023/03/20 00:00:20;0.00;0.00;0.62;0.00;0.00;0.62;2.53;2.00;;;25.70;25.30;;;;;;2259714;61;20512;-53
2023/03/20 00:03:04;0.00;0.00;0.62;0.00;0.00;0.62;2.40;2.03;;;25.70;25.30;;;;;;2260295;61;20356;-52
2023/03/20 00:05:50;0.00;0.00;0.62;0.00;0.00;0.62;2.27;1.97;;;25.70;25.30;;;;;;2259811;61;20408;-52
2023/03/20 00:08:38;0.00;0.00;0.62;0.00;0.00;0.62;2.70;2.10;;;25.70;25.30;;;;;;2259378;61;20956;-52
2023/03/20 00:11:29;0.00;0.00;0.62;0.00;0.00;0.62;2.60;2.37;;;25.70;25.30;;;;;;2259671;61;20512;-52
2023/03/20 00:14:17;0.00;0.00;0.62;0.00;0.00;0.62;2.80;2.47;;;25.70;25.30;;;;;;2256902;61;20885;-54
2023/03/20 00:17:09;0.00;0.00;0.62;0.00;0.00;0.62;3.10;2.33;;;25.70;25.30;;;;;;2259438;61;20369;-55
2023/03/20 00:19:54;0.00;0.00;0.62;0.00;0.00;0.62;2.80;2.33;;;25.70;25.30;;;;;;2259707;61;20419;-53
2023/03/20 00:22:39;0.00;0.00;0.62;0.00;0.00;0.62;2.50;2.30;;;25.70;25.30;;;;;;2259494;61;20893;-50
2023/03/20 00:25:25;0.00;0.00;0.62;0.00;0.00;0.62;2.70;2.30;;;25.70;25.30;;;;;;2260241;61;20377;-53
2023/03/20 00:28:33;0.00;0.00;0.62;0.00;0.00;0.62;2.80;2.50;;;25.70;25.30;;;;;;2259815;61;20396;-53
2023/03/20 00:31:24;0.00;0.00;0.62;0.00;0.00;0.62;2.50;2.20;;;25.70;25.30;;;;;;2256249;61;20420;-54
2023/03/20 00:34:14;0.00;0.00;0.62;0.00;0.00;0.62;2.70;2.20;;;25.70;25.30;;;;;;2259763;61;20393;-53
2023/03/20 00:36:59;0.00;0.00;0.62;0.00;0.00;0.62;2.60;2.20;;;25.70;25.40;;;;;;2260060;61;20408;-55
2023/03/20 00:39:44;0.00;0.00;0.62;0.00;0.00;0.62;2.43;2.07;;;25.70;25.30;;;;;;2259562;61;20410;-53
2023/03/20 00:42:30;0.00;0.00;0.62;0.00;0.00;0.62;2.17;1.83;;;25.70;25.30;;;;;;2259994;61;20372;-54
2023/03/20 00:45:19;0.00;0.00;0.62;0.00;0.00;0.62;3.13;2.30;;;25.70;25.30;;;;;;2259506;61;20420;-53
2023/03/20 00:48:04;0.00;0.00;0.62;0.00;0.00;0.62;2.27;2.07;;;25.70;25.30;;;;;;2260039;61;20362;-50
2023/03/20 00:50:49;0.00;0.00;0.62;0.00;0.00;0.62;2.87;2.07;;;25.70;25.30;;;;;;2259927;61;20364;-56
2023/03/20 00:53:33;0.00;0.00;0.62;0.00;0.00;0.62;2.30;1.83;;;25.70;25.30;;;;;;2259146;61;20400;-53
2023/03/20 00:56:32;0.00;0.00;0.62;0.00;0.00;0.62;2.40;1.97;;;25.70;25.30;;;;;;2259756;61;20416;-54
2023/03/20 00:59:22;0.00;0.00;0.62;0.00;0.00;0.62;2.20;1.80;;;25.60;25.30;;;;;;2259735;61;20528;-56
2023/03/20 01:02:08;0.00;0.00;0.62;0.00;0.00;0.62;2.27;2.00;;;25.70;25.30;;;;;;2259403;61;20403;-53
2023/03/20 01:04:53;0.00;0.00;0.62;0.00;0.00;0.62;2.50;1.73;;;25.60;25.30;;;;;;2259960;61;20408;-54
2023/03/20 01:07:39;0.00;0.00;0.62;0.00;0.00;0.62;3.37;2.30;;;25.60;25.30;;;;;;2259395;61;21177;-53
2023/03/20 01:10:28;0.00;0.00;0.62;0.00;0.00;0.62;2.97;2.67;;;25.70;25.40;;;;;;2259406;61;20448;-53
2023/03/20 01:13:20;0.00;0.00;0.62;0.00;0.00;0.62;2.60;2.13;;;25.60;25.30;;;;;;2259639;61;20461;-52
2023/03/20 01:16:19;0.00;0.00;0.62;0.00;0.00;0.62;2.40;2.00;;;25.60;25.30;;;;;;2259251;61;20396;-55
2023/03/20 01:19:05;0.00;0.00;0.62;0.00;0.00;0.62;2.47;2.17;;;25.70;25.40;;;;;;2259676;61;20417;-51
2023/03/20 01:21:50;0.00;0.00;0.62;0.00;0.00;0.62;2.10;1.77;;;25.60;25.30;;;;;;2259028;61;20368;-55
2023/03/20 01:24:35;0.00;0.00;0.62;0.00;0.00;0.62;1.87;1.60;;;25.60;25.30;;;;;;2259510;61;20389;-57
2023/03/20 01:27:20;0.00;0.00;0.62;0.00;0.00;0.62;2.93;2.10;;;25.60;25.30;;;;;;2260055;61;20900;-52
2023/03/20 01:30:22;0.00;0.00;0.62;0.00;0.00;0.62;2.30;2.10;;;25.60;25.30;;;;;;2259171;61;20461;-51
2023/03/20 01:33:14;0.00;0.00;0.62;0.00;0.00;0.62;2.03;1.83;;;25.60;25.30;;;;;;2259959;61;20363;-54
2023/03/20 01:35:59;0.00;0.00;0.62;0.00;0.00;0.62;2.80;2.10;;;25.60;25.30;;;;;;2259659;61;20409;-53
2023/03/20 01:38:44;0.00;0.00;0.62;0.00;0.00;0.62;2.70;1.87;;;25.60;25.30;;;;;;2259355;61;20365;-52
2023/03/20 01:41:31;0.00;0.00;0.62;0.00;0.00;0.62;2.03;1.83;;;25.60;25.30;;;;;;2259512;61;20365;-54
2023/03/20 01:44:21;0.00;0.00;0.62;0.00;0.00;0.62;2.70;2.20;;;25.60;25.30;;;;;;2253346;61;20836;-57
2023/03/20 01:47:15;0.00;0.00;0.62;0.00;0.00;0.62;2.80;2.13;;;25.60;25.30;;;;;;2256549;61;20837;-54
2023/03/20 01:50:25;0.00;0.00;0.62;0.00;0.00;0.62;2.47;2.27;;;25.60;25.30;;;;;;2259613;61;20365;-54
2023/03/20 01:53:22;0.00;0.00;0.62;0.00;0.00;0.62;2.63;2.17;;;25.60;25.30;;;;;;2256762;61;20420;-55
2023/03/20 01:56:13;0.00;0.00;0.62;0.00;0.00;0.62;2.30;1.80;;;25.60;25.30;;;;;;2260032;61;20392;-51
2023/03/20 01:59:08;0.00;0.00;0.62;0.00;0.00;0.62;2.60;2.10;;;25.60;25.40;;;;;;2258953;61;20531;-52
2023/03/20 02:01:54;0.00;0.00;0.62;0.00;0.00;0.62;2.30;2.10;;;25.60;25.30;;;;;;2260162;61;20364;-52
2023/03/20 02:04:45;0.00;0.00;0.62;0.00;0.00;0.62;2.30;2.00;;;25.60;25.30;;;;;;2259815;61;20384;-58
2023/03/20 02:07:35;0.00;0.00;0.62;0.00;0.00;0.62;2.73;2.47;;;25.60;25.30;;;;;;2259486;61;20408;-55
2023/03/20 02:10:26;0.00;0.00;0.62;0.00;0.00;0.62;2.50;2.13;;;25.60;25.30;;;;;;2256868;61;20369;-53
2023/03/20 02:13:19;0.00;0.00;0.62;0.00;0.00;0.62;2.30;2.03;;;25.50;25.30;;;;;;2259961;61;20793;-54
2023/03/20 02:16:11;0.00;0.00;0.62;0.00;0.00;0.62;2.03;1.80;;;25.50;25.30;;;;;;2260082;61;20413;-54
2023/03/20 02:19:25;0.00;0.00;0.62;0.00;0.00;0.62;2.37;1.97;;;25.50;25.30;;;;;;2259640;61;20415;-60
2023/03/20 02:23:01;0.00;0.00;0.62;0.00;0.00;0.62;2.90;1.90;;;25.50;25.30;;;;;;2259510;61;20365;-52
2023/03/20 02:26:15;0.00;0.00;0.62;0.00;0.00;0.62;2.33;2.03;;;25.50;25.30;;;;;;2239427;61;20425;-56
2023/03/20 02:29:50;0.00;0.00;0.62;0.00;0.00;0.62;3.20;2.30;;;25.50;25.30;;;;;;2235409;61;20373;-56
2023/03/20 02:33:32;0.00;0.00;0.62;0.00;0.00;0.62;2.90;2.30;;;25.50;25.30;;;;;;2219887;62;20378;-53
2023/03/20 02:36:55;0.00;0.00;0.62;0.00;0.00;0.62;2.43;2.03;;;25.50;25.30;;;;;;2219002;62;20413;-53
2023/03/20 02:40:11;0.00;0.00;0.62;0.00;0.00;0.62;2.90;2.50;;;25.50;25.30;;;;;;2219556;62;20377;-55
2023/03/20 02:43:04;0.00;0.00;0.62;0.00;0.00;0.62;2.03;1.77;;;25.50;25.30;;;;;;2230034;61;20669;-53
2023/03/20 02:45:57;0.00;0.00;0.62;0.00;0.00;0.62;2.60;2.40;;;25.50;25.30;;;;;;2239339;61;20406;-51
2023/03/20 02:48:54;0.00;0.00;0.62;0.00;0.00;0.62;3.27;2.80;;;25.50;25.30;;;;;;2239200;61;20501;-64
2023/03/20 02:51:45;0.00;0.00;0.62;0.00;0.00;0.62;2.90;2.50;;;25.50;25.30;;;;;;2236020;61;20814;-52
2023/03/20 02:54:39;0.00;0.00;0.62;0.00;0.00;0.62;2.40;1.80;;;25.50;25.30;;;;;;2236289;61;20369;-55
2023/03/20 02:57:40;0.00;0.00;0.62;0.00;0.00;0.62;3.30;2.63;;;25.50;25.30;;;;;;2239503;61;20365;-53
2023/03/20 03:00:35;0.00;0.00;0.62;0.00;0.00;0.62;2.33;2.00;;;25.50;25.30;;;;;;2239026;61;20412;-51
2023/03/20 03:03:27;0.00;0.00;0.62;0.00;0.00;0.62;2.57;2.30;;;25.50;25.30;;;;;;2236400;61;20382;-52
2023/03/20 03:06:21;0.00;0.00;0.62;0.00;0.00;0.62;2.70;2.10;;;25.50;25.30;;;;;;2235800;61;20958;-52
2023/03/20 03:09:11;0.00;0.00;0.62;0.00;0.00;0.62;2.67;2.30;;;25.50;25.30;;;;;;2245829;61;20368;-55
2023/03/20 03:12:03;0.00;0.00;0.62;0.00;0.00;0.62;2.80;2.20;;;25.50;25.30;;;;;;2259828;61;20361;-55
2023/03/20 03:14:54;0.00;0.00;0.62;0.00;0.00;0.62;2.60;2.00;;;25.50;25.30;;;;;;2259131;61;20470;-51
2023/03/20 03:17:41;0.00;0.00;0.62;0.00;0.00;0.62;3.07;2.37;;;25.50;25.30;;;;;;2259966;61;20844;-53
2023/03/20 03:20:31;0.00;0.00;0.62;0.00;0.00;0.62;2.37;2.00;;;25.50;25.30;;;;;;2258953;61;20365;-54
2023/03/20 03:23:27;0.00;0.00;0.62;0.00;0.00;0.62;1.97;1.60;;;25.50;25.30;;;;;;2257024;61;20373;-55
2023/03/20 03:26:18;0.00;0.00;0.62;0.00;0.00;0.62;3.03;2.33;;;25.50;25.30;;;;;;2259946;61;20428;-52
2023/03/20 03:29:13;0.00;0.00;0.62;0.00;0.00;0.62;2.70;2.20;;;25.50;25.30;;;;;;2258746;61;20901;-67
2023/03/20 03:32:02;0.00;0.00;0.62;0.00;0.00;0.62;2.40;1.70;;;25.50;25.30;;;;;;2259906;61;20365;-53
2023/03/20 03:34:48;0.00;0.00;0.62;0.00;0.00;0.62;2.70;2.20;;;25.50;25.30;;;;;;2256701;61;20392;-55
2023/03/20 03:37:46;0.00;0.00;0.62;0.00;0.00;0.62;2.07;1.87;;;25.40;25.30;;;;;;2260320;61;20442;-51
2023/03/20 03:40:38;0.00;0.00;0.62;0.00;0.00;0.62;2.27;2.07;;;25.40;25.80;;;;;;2259300;61;20403;-56
2023/03/20 03:43:30;0.00;0.00;0.62;0.00;0.00;0.62;2.60;2.40;;;25.40;25.30;;;;;;2259086;61;20419;-55
2023/03/20 03:46:21;0.00;0.00;0.62;0.00;0.00;0.62;2.43;2.07;;;25.50;25.30;;;;;;2260109;61;20403;-55
2023/03/20 03:49:11;0.00;0.00;0.62;0.00;0.00;0.62;2.90;2.23;;;25.50;25.30;;;;;;2259892;61;20487;-54
2023/03/20 03:52:04;0.00;0.00;0.62;0.00;0.00;0.62;2.93;2.10;;;25.40;25.20;;;;;;2259906;61;20675;-55
2023/03/20 03:54:54;0.00;0.00;0.62;0.00;0.00;0.62;2.43;1.83;;;25.40;25.30;;;;;;2261006;61;20472;-53
2023/03/20 03:57:55;0.00;0.00;0.62;0.00;0.00;0.62;2.70;2.00;;;25.40;25.30;;;;;;2263607;61;20894;-57
2023/03/20 04:00:43;0.00;0.00;0.62;0.00;0.00;0.62;3.80;2.40;;;25.40;25.30;;;;;;2260797;61;20387;-55
2023/03/20 04:03:32;0.00;0.00;0.62;0.00;0.00;0.62;2.53;2.27;;;25.40;25.30;;;;;;2264042;61;20396;-59
2023/03/20 04:06:19;0.00;0.00;0.62;0.00;0.00;0.62;2.30;1.93;;;25.50;25.30;;;;;;2262988;61;20414;-53
2023/03/20 04:09:04;0.00;0.00;0.62;0.00;0.00;0.62;2.70;2.10;;;25.40;25.30;;;;;;2260659;61;20455;-52
2023/03/20 04:11:51;0.00;0.00;0.62;0.00;0.00;0.62;2.30;1.80;;;25.40;25.30;;;;;;2260733;61;20464;-56
2023/03/20 04:14:37;0.00;0.00;0.62;0.00;0.00;0.62;2.63;2.03;;;25.40;25.30;;;;;;2260717;61;20450;-54
2023/03/20 04:17:22;0.00;0.00;0.62;0.00;0.00;0.62;2.37;1.90;;;25.40;25.20;;;;;;2260984;61;20376;-55
2023/03/20 04:20:09;0.00;0.00;0.62;0.00;0.00;0.62;2.10;1.90;;;25.40;25.30;;;;;;2263078;61;20423;-52
2023/03/20 04:22:55;0.00;0.00;0.62;0.00;0.00;0.62;2.47;2.00;;;25.40;25.30;;;;;;2258277;61;20953;-58
2023/03/20 04:25:40;0.00;0.00;0.62;0.00;0.00;0.62;1.90;1.60;;;25.40;25.30;;;;;;2260721;61;20384;-56
2023/03/20 04:28:25;0.00;0.00;0.62;0.00;0.00;0.62;2.50;1.93;;;25.40;25.30;;;;;;2260282;61;20368;-52
2023/03/20 04:31:29;0.00;0.00;0.62;0.00;0.00;0.62;2.70;2.20;;;25.40;25.30;;;;;;2264107;61;20372;-56
2023/03/20 04:34:40;0.00;0.00;0.62;0.00;0.00;0.62;2.80;1.73;;;25.40;25.30;;;;;;2263490;61;20875;-57
2023/03/20 04:37:41;0.00;0.00;0.62;0.00;0.00;0.62;2.30;1.87;;;25.40;25.30;;;;;;2261076;61;20360;-52
2023/03/20 04:40:27;0.00;0.00;0.62;0.00;0.00;0.62;2.20;1.80;;;25.40;25.30;;;;;;2260592;61;20474;-55
2023/03/20 04:43:12;0.00;0.00;0.62;0.00;0.00;0.62;2.30;2.07;;;25.40;25.30;;;;;;2260241;61;20479;-56
2023/03/20 04:45:58;0.00;0.00;0.62;0.00;0.00;0.62;2.80;1.93;;;25.40;25.30;;;;;;2260705;61;20463;-55
2023/03/20 04:48:43;0.00;0.00;0.62;0.00;0.00;0.62;2.47;1.83;;;25.40;25.30;;;;;;2261108;61;20863;-56
2023/03/20 04:51:29;0.00;0.00;0.62;0.00;0.00;0.62;2.73;2.07;;;25.40;25.30;;;;;;2263803;61;20943;-50
2023/03/20 04:54:15;0.00;0.00;0.62;0.00;0.00;0.62;2.70;1.90;;;25.40;25.20;;;;;;2260599;61;20774;-59
2023/03/20 04:57:03;0.00;0.00;0.62;0.00;0.00;0.62;2.13;1.93;;;25.30;25.20;;;;;;2260125;61;20431;-54
2023/03/20 04:59:48;0.00;0.00;0.62;0.00;0.00;0.62;2.50;1.77;;;25.30;25.20;;;;;;2260535;61;20372;-53
2023/03/20 05:02:33;0.00;0.00;0.62;0.00;0.00;0.62;2.80;2.40;;;25.30;25.20;;;;;;2261115;61;20383;-56
2023/03/20 05:05:18;0.00;0.00;0.62;0.00;0.00;0.62;2.80;2.40;;;25.30;25.20;;;;;;2259972;61;20798;-53
2023/03/20 05:08:04;0.00;0.00;0.62;0.00;0.00;0.62;2.30;2.07;;;25.30;25.20;;;;;;2260706;61;20360;-52
2023/03/20 05:10:52;0.00;0.00;0.62;0.00;0.00;0.62;2.30;1.83;;;25.40;25.30;;;;;;2260616;61;20399;-53
2023/03/20 05:14:10;0.00;0.00;0.62;0.00;0.00;0.62;2.17;1.70;;;25.30;25.70;;;;;;2262472;61;20372;-57
2023/03/20 05:17:31;0.00;0.00;0.62;0.00;0.00;0.62;2.67;2.00;;;25.30;25.20;;;;;;2246814;61;20569;-50
2023/03/20 05:20:35;0.00;0.00;0.62;0.00;0.00;0.62;2.20;1.80;;;25.30;25.20;;;;;;2263099;61;20400;-57
2023/03/20 05:23:27;0.00;0.00;0.62;0.00;0.00;0.62;2.50;1.87;;;25.30;25.20;;;;;;2260754;61;20407;-53
2023/03/20 05:26:32;0.00;0.00;0.62;0.00;0.00;0.62;2.20;1.70;;;25.30;25.20;;;;;;2263845;61;20378;-50
2023/03/20 05:29:36;0.00;0.00;0.62;0.00;0.00;0.62;2.30;1.90;;;25.30;25.20;;;;;;2261010;61;20931;-51
2023/03/20 05:32:45;0.00;0.00;0.62;0.00;0.00;0.62;2.13;1.70;;;25.30;25.20;;;;;;2261670;61;20372;-58
2023/03/20 05:35:49;0.00;0.00;0.62;0.00;0.00;0.62;2.60;1.97;;;25.30;25.20;;;;;;2264564;61;20461;-53
2023/03/20 05:38:48;0.00;0.00;0.62;0.00;0.00;0.62;2.70;1.80;;;25.30;25.20;;;;;;2261574;61;20456;-55
2023/03/20 05:41:49;0.00;0.00;0.62;0.00;0.00;0.62;2.03;1.80;;;25.30;25.20;;;;;;2260780;61;20366;-53
2023/03/20 05:45:11;0.00;0.00;0.62;0.00;0.00;0.62;2.93;2.37;;;25.20;25.20;;;;;;2243132;61;20421;-52
2023/03/20 05:48:27;0.00;0.00;0.62;0.00;0.00;0.62;2.53;1.97;;;25.20;25.20;;;;;;2263460;61;20444;-53
2023/03/20 05:51:30;0.00;0.00;0.62;0.00;0.00;0.62;3.27;2.57;;;25.20;25.20;;;;;;2261526;61;20943;-54
2023/03/20 05:54:28;0.00;0.00;0.62;0.00;0.00;0.62;2.30;1.80;;;25.30;25.20;;;;;;2261259;61;20411;-52
2023/03/20 05:57:26;0.00;0.00;0.62;0.00;0.00;0.62;3.23;2.20;;;25.20;25.20;;;;;;2260775;61;20436;-53
2023/03/20 06:00:14;0.00;0.00;0.62;0.00;0.00;0.62;2.30;2.00;;;25.20;25.20;;;;;;2264043;61;20409;-57
2023/03/20 06:03:11;0.00;0.00;0.62;0.00;0.00;0.62;2.90;2.33;;;25.20;25.20;;;;;;2260380;61;20854;-54
2023/03/20 06:06:13;0.00;0.00;0.62;0.00;0.00;0.62;3.00;2.50;;;25.20;25.20;;;;;;2261421;61;20422;-50
2023/03/20 06:08:58;0.00;0.00;0.62;0.00;0.00;0.62;3.43;3.00;;;25.20;25.20;;;;;;2261265;61;20368;-51
2023/03/20 06:11:43;0.00;0.00;0.62;0.00;0.00;0.62;3.50;2.70;;;25.20;25.20;;;;;;2260415;61;20414;-52
2023/03/20 06:14:29;0.00;0.00;0.62;0.00;0.00;0.62;4.10;2.97;;;25.20;25.20;;;;;;2261248;61;20410;-53
2023/03/20 06:17:20;0.00;0.00;0.62;0.00;0.00;0.62;3.60;2.70;;;25.20;25.20;;;;;;2261234;61;20448;-54
2023/03/20 06:20:12;0.00;0.00;0.62;0.00;0.00;0.62;3.90;2.70;;;25.20;25.20;;;;;;2260968;61;20449;-53
2023/03/20 06:22:58;0.00;0.00;0.62;0.00;0.00;0.62;3.53;2.93;;;25.20;25.20;;;;;;2261382;61;20891;-54
2023/03/20 06:25:43;0.00;0.00;0.62;0.00;0.00;0.62;3.47;2.83;;;25.20;25.20;;;;;;2263332;61;20451;-52
2023/03/20 06:28:28;0.00;0.00;0.62;0.00;0.00;0.62;4.20;3.27;;;25.20;25.20;;;;;;2261322;61;20912;-54
2023/03/20 06:31:20;0.00;0.00;0.62;0.00;0.00;0.62;4.30;3.20;;;25.20;25.20;;;;;;2261281;61;20422;-52
2023/03/20 06:34:06;0.00;0.00;0.62;0.00;0.00;0.62;3.60;2.93;;;25.20;25.20;;;;;;2263884;61;20770;-54
2023/03/20 06:36:56;0.00;0.00;0.62;0.00;0.00;0.62;4.03;3.00;;;25.20;25.20;;;;;;2261089;61;20424;-56
2023/03/20 06:39:42;0.00;0.00;0.62;0.00;0.00;0.62;3.67;2.93;;;25.20;25.20;;;;;;2260752;61;20540;-53
2023/03/20 06:42:30;0.00;0.00;0.62;0.00;0.00;0.62;3.90;3.50;;;25.20;25.20;;;;;;2261409;61;20491;-55
2023/03/20 06:45:15;0.00;0.00;0.62;0.00;0.00;0.62;4.07;3.50;;;25.20;25.20;;;;;;2263825;61;20434;-55
2023/03/20 06:48:13;0.00;0.00;0.62;0.00;0.00;0.62;4.07;3.27;;;25.20;25.20;;;;;;2260726;61;20364;-54
2023/03/20 06:50:59;0.00;0.00;0.62;0.00;0.00;0.62;4.27;3.30;;;25.20;25.20;;;;;;2257665;61;20372;-56
2023/03/20 06:53:51;0.00;0.00;0.62;0.00;0.00;0.62;4.23;3.37;;;25.20;25.20;;;;;;2254661;61;20365;-54
2023/03/20 06:56:39;0.00;0.00;0.62;0.00;0.00;0.62;4.47;3.60;;;25.20;25.70;;;;;;2259801;61;20416;-52
2023/03/20 06:59:25;0.00;0.00;0.62;0.00;0.00;0.62;3.93;3.33;;;25.20;25.20;;;;;;2260130;61;20393;-54
2023/03/20 07:02:15;0.00;0.00;0.62;0.00;0.00;0.62;3.30;2.53;;;25.20;25.20;;;;;;2259268;61;20940;-51
2023/03/20 07:05:00;0.00;0.00;0.62;0.00;0.00;0.62;4.47;3.07;;;25.20;25.70;;;;;;2259887;61;20408;-54
2023/03/20 07:07:47;0.00;0.00;0.62;0.00;0.00;0.62;4.87;4.07;;;25.20;25.20;;;;;;2259685;61;20894;-50
2023/03/20 07:10:33;0.00;0.00;0.62;0.00;0.00;0.62;5.03;3.30;;;25.20;25.20;;;;;;2259476;61;20412;-50
2023/03/20 07:13:18;0.00;0.00;0.62;0.00;0.00;0.62;3.93;3.00;;;25.20;25.20;;;;;;2259913;61;20384;-52
2023/03/20 07:16:04;0.00;0.00;0.62;0.00;0.00;0.62;4.40;3.77;;;25.20;25.20;;;;;;2259847;61;20793;-53
2023/03/20 07:18:53;0.00;0.00;0.62;0.00;0.00;0.62;3.80;2.80;;;25.20;25.20;;;;;;2259057;61;20884;-51
2023/03/20 07:21:39;0.00;0.00;0.62;0.00;0.00;0.62;3.47;2.80;;;25.20;25.20;;;;;;2259967;61;20401;-53
2023/03/20 07:24:25;0.00;0.00;0.62;0.00;0.00;0.62;3.57;2.73;;;25.20;25.20;;;;;;2259129;61;20783;-54
2023/03/20 07:27:10;0.00;0.00;0.62;0.00;0.00;0.62;4.17;3.37;;;25.20;25.20;;;;;;2259663;61;20364;-54
2023/03/20 07:29:55;0.00;0.00;0.62;0.00;0.00;0.62;3.80;2.80;;;25.10;25.10;;;;;;2259587;61;20839;-54
2023/03/20 07:32:41;0.00;0.00;0.62;0.00;0.00;0.62;3.43;2.70;;;25.10;25.10;;;;;;2259179;61;20380;-52
2023/03/20 07:35:26;0.00;0.00;0.62;0.00;0.00;0.62;2.87;2.43;;;25.10;25.10;;;;;;2259603;61;20392;-52
2023/03/20 07:38:11;0.00;0.00;0.62;0.00;0.00;0.62;3.70;3.00;;;25.10;25.10;;;;;;2259542;61;20454;-56
2023/03/20 07:41:08;0.00;0.00;0.62;0.00;0.00;0.62;3.10;2.70;;;25.10;25.10;;;;;;2256023;61;20460;-56
2023/03/20 07:43:56;0.00;0.00;0.62;0.00;0.00;0.62;4.77;2.90;;;25.20;25.20;;;;;;2259843;61;20361;-51
2023/03/20 07:47:00;0.00;0.00;0.62;0.00;0.00;0.62;3.40;3.10;;;25.10;25.10;;;;;;2255962;61;20815;-54
2023/03/20 07:49:45;0.00;0.00;0.62;0.00;0.00;0.62;3.60;2.40;;;25.10;25.10;;;;;;2259749;61;20435;-53
2023/03/20 07:52:30;0.00;0.00;0.62;0.00;0.00;0.62;3.83;2.80;;;25.10;25.10;;;;;;2651999;45;20452;-55
2023/03/20 07:55:16;0.00;0.00;0.62;0.00;0.00;0.62;3.03;2.57;;;25.10;25.10;;;;;;2259215;61;20379;-55
2023/03/20 07:58:02;0.00;0.00;0.62;0.00;0.00;0.62;4.50;2.70;;;25.10;25.10;;;;;;2260259;61;20452;-53
2023/03/20 08:00:47;0.00;0.00;0.62;0.00;0.00;0.62;3.50;2.87;;;25.10;25.10;;;;;;2256701;61;20400;-55
2023/03/20 08:03:31;0.00;0.00;0.62;0.00;0.00;0.62;3.17;2.70;;;25.10;25.10;;;;;;2259421;61;20380;-53
2023/03/20 08:06:16;0.00;0.00;0.62;0.00;0.00;0.62;3.90;3.33;;;25.10;25.10;;;;;;2260057;61;20493;-50
2023/03/20 08:09:01;0.00;0.00;0.62;0.00;0.00;0.62;3.30;2.87;;;25.10;25.10;;;;;;2259090;61;20361;-52
2023/03/20 08:11:45;0.00;0.00;0.62;0.00;0.00;0.62;3.10;2.53;;;25.10;25.10;;;;;;2260317;61;20448;-55
2023/03/20 08:14:32;0.00;0.00;0.62;0.00;0.00;0.62;3.90;2.90;;;25.10;25.10;;;;;;2259740;61;20876;-55
2023/03/20 08:17:17;0.00;0.00;0.62;0.00;0.00;0.62;4.43;3.90;;;25.10;25.10;;;;;;2259524;61;20396;-54
2023/03/20 08:20:02;0.00;0.00;0.62;0.00;0.00;0.62;3.30;3.00;;;25.10;25.10;;;;;;2259650;61;20908;-54
2023/03/20 08:22:48;0.00;0.00;0.62;0.00;0.00;0.62;3.90;3.20;;;25.10;25.10;;;;;;2260283;61;20869;-55
2023/03/20 08:25:33;0.00;0.00;0.62;0.00;0.00;0.62;4.60;3.30;;;25.10;25.10;;;;;;2259385;61;20925;-57
2023/03/20 08:28:17;0.00;0.00;0.62;0.00;0.00;0.62;5.87;4.20;;;25.10;25.10;;;;;;2260025;61;20433;-51
2023/03/20 08:31:07;0.00;0.00;0.62;0.00;0.00;0.62;4.73;3.47;;;25.10;25.10;;;;;;2259094;61;20376;-53
2023/03/20 08:33:52;0.00;0.00;0.62;0.00;0.00;0.62;4.40;3.90;;;25.10;25.10;;;;;;2260226;61;20397;-55
2023/03/20 08:36:38;0.00;0.00;0.62;0.00;0.00;0.62;3.70;3.20;;;25.10;25.10;;;;;;2259929;61;20435;-55
2023/03/20 08:39:23;0.00;0.00;0.62;0.00;0.00;0.62;4.03;2.87;;;25.10;25.10;;;;;;2259352;61;20373;-56
2023/03/20 08:42:08;0.00;0.00;0.62;0.00;0.00;0.62;4.00;3.37;;;25.10;25.10;;;;;;2260196;61;20416;-52
2023/03/20 08:44:53;0.00;0.00;0.62;0.00;0.00;0.62;4.00;3.33;;;25.10;25.10;;;;;;2260127;61;20405;-50
2023/03/20 08:47:39;0.00;0.00;0.62;0.00;0.00;0.62;3.93;3.17;;;25.10;25.10;;;;;;2259338;61;20357;-51
2023/03/20 08:50:23;0.00;0.00;0.62;0.00;0.00;0.62;3.70;3.30;;;25.10;25.10;;;;;;2259587;61;20784;-56
2023/03/20 08:53:08;0.00;0.00;0.62;0.00;0.00;0.62;3.50;3.13;;;25.10;25.10;;;;;;2259539;61;20364;-58
2023/03/20 08:55:53;0.00;0.00;0.62;0.00;0.00;0.62;4.20;3.27;;;25.10;25.10;;;;;;2259967;61;20647;-53
2023/03/20 08:58:38;0.00;0.00;0.62;0.00;0.00;0.62;4.07;3.53;;;25.10;25.10;;;;;;2260346;61;20435;-54
2023/03/20 09:01:22;0.00;0.00;0.62;0.00;0.00;0.62;4.63;3.97;;;25.10;25.10;;;;;;2260183;61;20424;-56
2023/03/20 09:04:10;0.00;0.00;0.62;0.00;0.00;0.62;4.10;3.70;;;25.10;25.10;;;;;;2260614;61;20361;-54
2023/03/20 09:06:55;0.00;0.00;0.62;0.00;0.00;0.62;4.17;3.60;;;25.10;25.10;;;;;;2260825;61;20458;-56
2023/03/20 09:09:40;0.00;0.00;0.62;0.00;0.00;0.62;4.43;3.50;;;25.10;25.10;;;;;;2259806;61;20415;-52
2023/03/20 09:12:25;0.00;0.00;0.62;0.00;0.00;0.62;4.60;3.53;;;25.10;25.10;;;;;;2260804;61;20369;-52
2023/03/20 09:15:10;0.00;0.00;0.62;0.00;0.00;0.62;3.73;3.33;;;25.10;25.10;;;;;;2260522;61;20380;-52
2023/03/20 09:17:55;0.00;0.00;0.62;0.00;0.00;0.62;3.23;2.93;;;25.10;25.10;;;;;;2260795;61;20889;-56
2023/03/20 09:20:41;0.00;0.00;0.62;0.00;0.00;0.62;3.80;3.10;;;25.10;25.10;;;;;;2260402;61;20414;-50
2023/03/20 09:23:26;0.00;0.00;0.62;0.00;0.00;0.62;4.10;3.53;;;25.10;25.10;;;;;;2260067;61;20372;-53
2023/03/20 09:26:11;0.00;0.00;0.62;0.00;0.00;0.62;4.10;3.60;;;25.10;25.10;;;;;;2260672;61;20932;-56
2023/03/20 09:28:56;0.00;0.00;0.62;0.00;0.00;0.62;3.80;3.17;;;25.10;25.10;;;;;;2260545;61;20380;-52
2023/03/20 09:31:40;0.00;0.00;0.62;0.00;0.00;0.62;4.30;3.57;;;25.10;25.10;;;;;;2260037;61;20360;-53
2023/03/20 09:34:25;0.00;0.00;0.62;0.00;0.00;0.62;3.63;3.20;;;25.10;25.10;;;;;;2260611;61;20432;-60
2023/03/20 09:37:11;0.00;0.00;0.62;0.00;0.00;0.62;3.43;3.00;;;25.10;25.10;;;;;;2260603;61;20453;-55
2023/03/20 09:39:56;0.00;0.00;0.62;0.00;0.00;0.62;3.13;2.83;;;25.10;25.10;;;;;;2259986;61;20380;-50
2023/03/20 09:42:48;0.00;0.00;0.62;0.00;0.00;0.62;3.27;2.60;;;25.10;25.10;;;;;;2260513;61;20424;-55
2023/03/20 09:45:50;0.00;0.00;0.62;0.00;0.00;0.62;3.53;2.90;;;25.10;25.00;;;;;;2259918;61;20564;-53
2023/03/20 09:48:43;0.00;0.00;0.62;0.00;0.00;0.62;3.60;2.87;;;25.10;25.10;;;;;;2260708;61;20383;-53
2023/03/20 09:51:37;0.00;0.00;0.62;0.00;0.00;0.62;3.23;2.80;;;25.10;25.10;;;;;;2260779;61;20769;-60
2023/03/20 09:54:27;0.00;0.00;0.62;0.00;0.00;0.62;3.27;2.93;;;25.00;25.00;;;;;;2259861;61;20450;-52
2023/03/20 09:57:20;0.00;0.00;0.62;0.00;0.00;0.62;3.00;2.53;;;25.10;25.00;;;;;;2260534;61;20442;-56
2023/03/20 10:00:13;0.00;0.00;0.62;0.00;0.00;0.62;3.30;2.63;;;25.10;25.10;;;;;;2259419;61;20408;-54
2023/03/20 10:03:00;0.00;0.00;0.62;0.00;0.00;0.62;3.33;3.03;;;25.10;25.10;;;;;;2260302;61;20368;-55
2023/03/20 10:05:51;0.00;0.00;0.62;0.00;0.00;0.62;3.80;3.37;;;25.00;25.00;;;;;;2260557;61;20385;-55
2023/03/20 10:08:38;0.00;0.00;0.62;0.00;0.00;0.62;3.70;3.30;;;25.00;25.00;;;;;;2259796;61;20381;-52
2023/03/20 10:11:41;0.00;0.00;0.62;0.00;0.00;0.62;3.63;2.87;;;25.00;25.00;;;;;;2260422;61;20377;-51
2023/03/20 10:14:36;0.00;0.00;0.62;0.00;0.00;0.62;5.27;4.53;;;25.00;25.00;;;;;;2260365;61;20427;-50
2023/03/20 10:17:39;0.00;0.00;0.62;0.00;0.00;0.62;5.47;4.83;;;25.00;24.80;;;;;;2260338;61;20892;-52
2023/03/20 10:20:32;0.00;0.00;0.62;0.00;0.00;0.62;7.63;5.57;;;25.00;24.20;;;;;;2260559;61;20367;-55
2023/03/20 10:23:26;0.00;0.00;0.62;0.00;0.00;0.62;6.57;5.70;;;24.90;23.30;;;;;;2260343;61;20404;-59
2023/03/20 10:26:13;0.00;0.00;0.62;0.00;0.00;0.62;5.90;5.30;;;24.80;22.90;;;;;;2260927;61;20416;-60
2023/03/20 10:29:01;0.00;0.00;0.62;0.00;0.00;0.62;9.07;6.00;;;24.60;22.60;;;;;;2260320;61;20369;-57
2023/03/20 10:31:53;0.00;0.00;0.62;0.00;0.00;0.62;5.90;4.53;;;24.40;22.50;;;;;;2260400;61;20369;-51
2023/03/20 10:35:00;0.00;0.00;0.62;0.00;0.00;0.62;5.07;3.80;;;24.30;22.50;;;;;;2260457;61;20373;-54
2023/03/20 10:38:11;0.00;0.00;0.62;0.00;0.00;0.62;3.47;2.80;;;24.10;22.70;;;;;;2260069;61;20454;-55
2023/03/20 10:40:57;0.00;0.00;0.62;0.00;0.00;0.62;4.00;2.63;;;24.00;23.20;;;;;;2260224;61;20816;-51
2023/03/20 10:43:44;0.00;0.00;0.62;0.00;0.00;0.62;2.50;1.80;;;23.90;23.50;;;;;;2260312;61;20875;-55
2023/03/20 10:46:34;0.00;0.00;0.62;0.00;0.00;0.62;3.20;1.83;;;23.90;23.70;;;;;;2259969;61;20788;-55
2023/03/20 10:49:25;0.00;0.00;0.62;0.00;0.00;0.62;3.20;2.47;;;23.80;23.80;;;;;;2260488;61;20672;-57
2023/03/20 10:52:15;0.00;0.00;0.62;0.00;0.00;0.62;3.10;2.23;;;23.80;24.00;;;;;;2260150;61;20485;-52
2023/03/20 10:55:04;0.00;0.00;0.62;0.00;0.00;0.62;3.20;2.70;;;23.90;24.20;;;;;;2260571;61;20501;-51
2023/03/20 10:57:56;0.00;0.00;0.62;0.00;0.00;0.62;6.47;3.30;;;23.90;24.30;;;;;;2260626;61;20427;-52
2023/03/20 11:00:42;0.00;0.00;0.62;0.00;0.00;0.62;3.70;3.00;;;23.90;24.40;;;;;;2260145;61;20357;-54
2023/03/20 11:03:31;0.00;0.00;0.62;0.00;0.00;0.62;3.37;2.97;;;23.90;24.50;;;;;;2260487;61;20361;-53
2023/03/20 11:06:21;0.00;0.00;0.62;0.00;0.00;0.62;3.73;2.90;;;23.90;24.50;;;;;;2260225;61;20641;-53
2023/03/20 11:09:17;0.00;0.00;0.62;0.00;0.00;0.62;4.10;3.20;;;24.00;24.60;;;;;;2260584;61;20364;-57
2023/03/20 11:12:03;0.00;0.00;0.62;0.00;0.00;0.62;3.33;2.73;;;24.00;24.60;;;;;;2260611;61;20428;-56
2023/03/20 11:14:48;0.00;0.00;0.62;0.00;0.00;0.62;3.07;2.47;;;24.10;24.70;;;;;;2259709;61;20440;-56